CYBK

Baker Lake  Airport

Baker Lake, Canada

CYBK 231026Z 31028G34KT 3/4SM -SN BLSN OVC030 M17/M20 A2942 RMK BLSN2SC6 SLP967

Observed Flight Rules
Nov-23 @ 10:26 UTC (33 minutes ago)
 
Instrument Flight Rules
Wind Visibility Clouds Conditions
310° at 28 knots
 Gusting to 34 knots
3/4 miles
  • Overcast at 3,000' AGL
  • Light Snow
  • Blowing
  • Snow
Temperatures Readings
Current -17°C / 1°F
Dewpoint -20°C / -4°F
Humidity 78%
Altimeter 29.42" Hg
Pressure 996.7 hPa
Elevation 18
Observed Flight Rules
Nov-23 @ 10:26 UTC
(33 minutes ago)
 
LIFR
Wind Visibility
310° at 28 knots
 Gusting to 34 knots
3/4 miles
Clouds
  • Overcast at 3,000' AGL
Conditions
  • Light Snow
  • Blowing
  • Snow
Temperature Dewpoint
-17°C / 1°F -20°C / -4°F
Humidity Altimeter Pressure
78% 29.42" Hg 996.7 hPa